Time;durP1;ratioP1;P1;durP2;ratioP2;P2;SDS_P1;SDS_P2;PMS_P1;PMS_P2;Temp;Humidity;BMP_temperature;BMP_pressure;BME280_temperature;BME280_humidity;BME280_pressure;Samples;Min_cycle;Max_cycle;Signal;HPM_P1;HPM_P2
2023/12/20 00:01:23;;;;;;;5.38;0.20;;;6.70;99.90;;;;;;5000930;28;20122;-77
2023/12/20 00:03:48;;;;;;;0.28;0.00;;;6.70;99.90;;;;;;5000986;28;20054;-77
2023/12/20 00:06:14;;;;;;;0.20;0.10;;;6.60;99.90;;;;;;4993445;28;20161;-77
2023/12/20 00:08:40;;;;;;;0.70;0.10;;;6.60;99.90;;;;;;5002330;28;20045;-77
2023/12/20 00:11:05;;;;;;;0.20;0.20;;;6.70;99.90;;;;;;4999229;28;20045;-77
2023/12/20 00:13:31;;;;;;;1.50;0.10;;;6.70;99.90;;;;;;4973450;28;20066;-77
2023/12/20 00:15:57;;;;;;;0.45;0.20;;;6.70;99.90;;;;;;5003976;28;20034;-77
2023/12/20 00:18:23;;;;;;;3.30;0.47;;;6.70;99.90;;;;;;5005067;28;20378;-77
2023/12/20 00:20:49;;;;;;;0.28;0.28;;;6.60;99.90;;;;;;4983248;28;20436;-77
2023/12/20 00:23:14;;;;;;;0.40;0.20;;;6.60;99.90;;;;;;4984627;28;20037;-77
2023/12/20 00:25:40;;;;;;;1.98;0.13;;;6.50;99.90;;;;;;5002759;28;20029;-77
2023/12/20 00:28:06;;;;;;;0.65;0.20;;;6.50;99.90;;;;;;5021778;28;20056;-77
2023/12/20 00:30:32;;;;;;;1.00;0.52;;;6.40;99.90;;;;;;4995094;28;20080;-77
2023/12/20 00:32:58;;;;;;;0.20;0.10;;;6.40;99.90;;;;;;5000733;28;20069;-77
2023/12/20 00:35:24;;;;;;;0.98;0.43;;;6.30;99.90;;;;;;4995648;28;20038;-77
2023/12/20 00:37:49;;;;;;;0.55;0.08;;;6.30;99.90;;;;;;5000086;28;20495;-77
2023/12/20 00:40:15;;;;;;;4.18;0.57;;;6.30;99.90;;;;;;4986128;28;20116;-77
2023/12/20 00:42:41;;;;;;;0.65;0.10;;;6.30;99.90;;;;;;5000947;28;20041;-77
2023/12/20 00:45:07;;;;;;;0.10;0.00;;;6.30;99.90;;;;;;4996922;28;20045;-77
2023/12/20 00:47:33;;;;;;;3.50;0.50;;;6.30;99.90;;;;;;4977295;28;20092;-77
2023/12/20 00:49:58;;;;;;;1.08;0.28;;;6.30;99.90;;;;;;4998826;28;20037;-77
2023/12/20 00:52:25;;;;;;;1.35;0.15;;;6.20;99.90;;;;;;4982446;28;20079;-77
2023/12/20 00:54:50;;;;;;;2.63;0.20;;;6.20;99.90;;;;;;4995962;28;20461;-77
2023/12/20 00:57:16;;;;;;;0.20;0.17;;;6.20;99.90;;;;;;4990019;28;20058;-77
2023/12/20 00:59:42;;;;;;;1.63;0.10;;;6.20;99.90;;;;;;4979971;28;20088;-77
2023/12/20 01:02:08;;;;;;;0.03;0.03;;;6.30;99.90;;;;;;4979343;28;20042;-77
2023/12/20 01:04:34;;;;;;;2.30;0.40;;;6.30;99.90;;;;;;4974899;28;20402;-77
2023/12/20 01:07:00;;;;;;;0.80;0.47;;;6.30;99.90;;;;;;4998210;28;20043;-77
2023/12/20 01:09:26;;;;;;;2.17;0.10;;;6.30;99.90;;;;;;4994296;28;20069;-77
2023/12/20 01:11:53;;;;;;;1.48;0.47;;;6.30;99.90;;;;;;4975575;28;20081;-77
2023/12/20 01:14:18;;;;;;;7.07;0.40;;;6.30;99.90;;;;;;4997295;28;20042;-77
2023/12/20 01:16:44;;;;;;;0.32;0.10;;;6.30;99.90;;;;;;4973360;28;20038;-77
2023/12/20 01:19:10;;;;;;;0.45;0.10;;;6.30;99.90;;;;;;4997916;28;20132;-77
2023/12/20 01:21:36;;;;;;;2.08;0.22;;;6.40;99.90;;;;;;4996414;28;20041;-77
2023/12/20 01:24:01;;;;;;;3.58;0.20;;;6.40;99.90;;;;;;4976996;28;20042;-77
2023/12/20 01:26:27;;;;;;;0.63;0.03;;;6.40;99.90;;;;;;4977989;28;20120;-77
2023/12/20 01:28:53;;;;;;;0.32;0.20;;;6.40;99.90;;;;;;4993322;28;20107;-77
2023/12/20 01:31:19;;;;;;;6.82;0.60;;;6.40;99.90;;;;;;4976892;28;20038;-77
2023/12/20 01:33:44;;;;;;;2.85;0.40;;;6.40;99.90;;;;;;4998454;28;20069;-77
2023/12/20 01:36:11;;;;;;;4.72;0.98;;;6.40;99.90;;;;;;4992115;28;20073;-77
2023/12/20 01:38:37;;;;;;;0.82;0.20;;;6.40;99.90;;;;;;4981859;28;20042;-77
2023/12/20 01:41:02;;;;;;;1.27;0.22;;;6.40;99.90;;;;;;4994219;28;20072;-77
2023/12/20 01:43:29;;;;;;;2.67;0.40;;;6.40;99.90;;;;;;4991303;28;20042;-77
2023/12/20 01:45:57;;;;;;;2.22;0.70;;;6.40;99.90;;;;;;4998969;28;20045;-77
2023/12/20 01:48:24;;;;;;;0.17;0.10;;;6.50;99.90;;;;;;4998914;28;20042;-77
2023/12/20 01:50:50;;;;;;;1.70;0.35;;;6.50;99.90;;;;;;5002414;28;20113;-77
2023/12/20 01:53:18;;;;;;;4.10;0.73;;;6.40;99.90;;;;;;4983766;28;20049;-77
2023/12/20 01:55:44;;;;;;;6.32;0.60;;;6.40;99.90;;;;;;5000056;28;20057;-77
2023/12/20 01:58:11;;;;;;;7.57;0.57;;;6.40;99.90;;;;;;5001096;28;20046;-77
2023/12/20 02:00:37;;;;;;;1.08;0.20;;;6.40;99.90;;;;;;4979280;28;20469;-77
2023/12/20 02:03:04;;;;;;;3.40;0.40;;;6.40;99.90;;;;;;4991425;28;20061;-77
2023/12/20 02:05:31;;;;;;;1.55;0.32;;;6.50;99.90;;;;;;4998949;28;20061;-77
2023/12/20 02:07:57;;;;;;;0.00;0.00;;;6.60;99.90;;;;;;4981570;28;20042;-77
2023/12/20 02:10:24;;;;;;;2.53;0.57;;;6.60;99.90;;;;;;4968301;28;20034;-77
2023/12/20 02:12:49;;;;;;;0.25;0.10;;;6.60;99.90;;;;;;4995282;28;20487;-77
2023/12/20 02:15:15;;;;;;;0.10;0.10;;;6.60;99.90;;;;;;5003057;28;20050;-77
2023/12/20 02:17:41;;;;;;;2.13;0.50;;;6.70;99.90;;;;;;5000753;28;20048;-77
2023/12/20 02:20:07;;;;;;;8.45;0.45;;;6.70;99.90;;;;;;4995313;28;20092;-77
2023/12/20 02:22:33;;;;;;;0.88;0.30;;;6.70;99.90;;;;;;4984879;28;20108;-76
2023/12/20 02:24:58;;;;;;;1.02;0.20;;;6.70;99.90;;;;;;4982125;28;20125;-76
2023/12/20 02:27:24;;;;;;;0.98;0.00;;;6.70;99.90;;;;;;4985407;28;20453;-77
2023/12/20 02:29:50;;;;;;;5.47;0.70;;;6.70;99.90;;;;;;5000255;28;20059;-77
2023/12/20 02:32:21;;;;;;;0.35;0.20;;;6.80;99.90;;;;;;4979878;28;20069;-77
2023/12/20 02:34:48;;;;;;;1.75;0.13;;;6.70;99.90;;;;;;4994898;28;20045;-77
2023/12/20 02:37:14;;;;;;;0.10;0.05;;;6.70;99.90;;;;;;4998965;28;20069;-77
2023/12/20 02:39:40;;;;;;;3.20;0.20;;;6.60;99.90;;;;;;4993689;28;20244;-77
2023/12/20 02:42:05;;;;;;;2.60;0.38;;;6.60;99.90;;;;;;4996246;28;20046;-77
2023/12/20 02:44:31;;;;;;;6.22;0.88;;;6.60;99.90;;;;;;4997603;28;20115;-77
2023/12/20 02:46:57;;;;;;;2.30;0.20;;;6.60;99.90;;;;;;4977444;28;20041;-77
2023/12/20 02:49:23;;;;;;;2.83;0.82;;;6.70;99.90;;;;;;4997746;28;20105;-77
2023/12/20 02:51:48;;;;;;;4.25;0.43;;;6.70;99.90;;;;;;4995117;28;20112;-77
2023/12/20 02:54:14;;;;;;;1.05;0.05;;;6.70;99.90;;;;;;5000948;28;20050;-77
2023/12/20 02:56:40;;;;;;;0.52;0.20;;;6.80;99.90;;;;;;5002390;28;20401;-77
2023/12/20 02:59:05;;;;;;;1.17;0.52;;;6.80;99.90;;;;;;4995780;28;20501;-77
2023/12/20 03:01:31;;;;;;;1.40;0.40;;;6.90;99.90;;;;;;4996761;28;20132;-77
2023/12/20 03:03:57;;;;;;;2.40;0.63;;;6.90;99.90;;;;;;5006795;28;20133;-77
2023/12/20 03:06:24;;;;;;;5.25;0.65;;;6.90;99.90;;;;;;5001768;28;20121;-77
2023/12/20 03:08:50;;;;;;;2.08;0.20;;;6.90;99.90;;;;;;5000834;28;20040;-77
2023/12/20 03:11:15;;;;;;;0.13;0.13;;;6.90;99.90;;;;;;4999154;28;20038;-77
2023/12/20 03:13:41;;;;;;;0.55;0.17;;;6.90;99.90;;;;;;4998196;28;20153;-77
2023/12/20 03:16:16;;;;;;;12.23;1.02;;;7.00;99.90;;;;;;4983216;28;20042;-77
2023/12/20 03:18:41;;;;;;;;;;;6.90;99.90;;;;;;4982156;28;20044;-77
2023/12/20 03:21:07;;;;;;;3.22;0.55;;;6.90;99.90;;;;;;4997991;28;19974;-77
2023/12/20 03:23:33;;;;;;;3.65;0.52;;;6.90;99.90;;;;;;5001448;28;20065;-77
2023/12/20 03:25:59;;;;;;;3.15;0.73;;;6.90;99.90;;;;;;4981838;28;20041;-77
2023/12/20 03:28:26;;;;;;;1.40;0.32;;;6.90;99.90;;;;;;4994455;28;20035;-77
2023/12/20 03:30:52;;;;;;;2.95;0.20;;;6.90;99.90;;;;;;4982720;28;20037;-77
2023/12/20 03:33:18;;;;;;;7.72;0.57;;;6.90;99.90;;;;;;4984651;28;20569;-77
2023/12/20 03:35:43;;;;;;;3.72;0.75;;;6.80;99.90;;;;;;4982890;28;20479;-77
2023/12/20 03:38:09;;;;;;;0.25;0.10;;;6.80;99.90;;;;;;4991853;28;20069;-77
2023/12/20 03:40:35;;;;;;;3.35;0.55;;;6.80;99.90;;;;;;5000200;28;20040;-77
2023/12/20 03:43:01;;;;;;;5.20;0.50;;;6.90;99.90;;;;;;5002143;28;20656;-77
2023/12/20 03:45:26;;;;;;;6.10;1.02;;;6.90;99.90;;;;;;4985303;28;20033;-77
2023/12/20 03:47:56;;;;;;;1.60;0.75;;;6.80;99.90;;;;;;5001059;28;20038;-77
2023/12/20 03:50:25;;;;;;;1.10;0.13;;;6.80;99.90;;;;;;4999131;28;20095;-77
2023/12/20 03:52:51;;;;;;;2.65;0.73;;;6.90;99.90;;;;;;4999966;28;20049;-77
2023/12/20 03:55:17;;;;;;;6.13;0.55;;;6.90;99.90;;;;;;5002058;28;20050;-77
2023/12/20 03:57:43;;;;;;;0.22;0.20;;;6.90;99.90;;;;;;4992221;28;20125;-77
2023/12/20 04:00:10;;;;;;;4.85;0.40;;;6.90;99.90;;;;;;4998949;28;20122;-77
2023/12/20 04:02:39;;;;;;;5.43;0.77;;;6.90;99.90;;;;;;4979486;28;20493;-77
2023/12/20 04:05:06;;;;;;;1.55;0.35;;;6.90;99.90;;;;;;4992585;28;20435;-77
2023/12/20 04:07:32;;;;;;;3.70;0.40;;;6.90;99.90;;;;;;4975286;28;20114;-77
2023/12/20 04:09:58;;;;;;;4.63;0.75;;;7.00;99.90;;;;;;4996707;28;20100;-77
2023/12/20 04:12:24;;;;;;;4.95;0.80;;;7.00;99.90;;;;;;4992972;28;20089;-77
2023/12/20 04:14:49;;;;;;;1.70;0.13;;;7.00;99.90;;;;;;4993755;28;20038;-77
2023/12/20 04:17:16;;;;;;;1.70;0.30;;;7.00;99.90;;;;;;4995738;28;20037;-77
2023/12/20 04:19:42;;;;;;;7.82;1.08;;;7.10;99.90;;;;;;4993728;28;20077;-77
2023/12/20 04:22:08;;;;;;;2.85;0.57;;;7.10;99.90;;;;;;4976822;28;20089;-77
2023/12/20 04:24:33;;;;;;;1.83;0.40;;;7.10;99.90;;;;;;4997005;28;20081;-77
2023/12/20 04:26:59;;;;;;;15.02;1.38;;;7.10;99.90;;;;;;5000416;28;20038;-77
2023/12/20 04:29:25;;;;;;;3.15;0.50;;;7.10;99.90;;;;;;4982507;28;20790;-77
2023/12/20 04:31:54;;;;;;;2.00;0.70;;;7.20;99.90;;;;;;4979251;28;20038;-77
2023/12/20 04:34:20;;;;;;;5.35;0.15;;;7.20;99.90;;;;;;4989181;28;20046;-77
2023/12/20 04:36:46;;;;;;;6.13;0.88;;;7.30;99.90;;;;;;4998363;28;20376;-77
2023/12/20 04:39:14;;;;;;;6.15;0.73;;;7.20;99.90;;;;;;4997065;28;20089;-77
2023/12/20 04:41:39;;;;;;;2.05;0.60;;;7.20;99.90;;;;;;4997857;28;20069;-77
2023/12/20 04:44:06;;;;;;;0.70;0.30;;;7.30;99.90;;;;;;4980405;28;20391;-77
2023/12/20 04:46:32;;;;;;;9.07;0.47;;;7.30;99.90;;;;;;4991940;28;20524;-77
2023/12/20 04:48:57;;;;;;;3.85;1.10;;;7.20;99.90;;;;;;4997475;28;20030;-77
2023/12/20 04:51:23;;;;;;;1.13;0.20;;;7.20;99.90;;;;;;4999810;28;20575;-77
2023/12/20 04:53:49;;;;;;;5.20;0.70;;;7.30;99.90;;;;;;4973845;28;20039;-77
2023/12/20 04:56:14;;;;;;;3.25;0.50;;;7.20;99.90;;;;;;4993099;28;20115;-77
2023/12/20 04:58:40;;;;;;;2.72;0.40;;;7.30;99.90;;;;;;4999198;28;20058;-77
2023/12/20 05:01:07;;;;;;;2.70;0.68;;;7.30;99.90;;;;;;4980109;28;20050;-77
2023/12/20 05:03:32;;;;;;;2.83;0.82;;;7.20;99.90;;;;;;4991915;28;20156;-77
2023/12/20 05:05:58;;;;;;;8.57;1.17;;;7.20;99.90;;;;;;4996822;28;20125;-77
2023/12/20 05:08:24;;;;;;;1.95;0.52;;;7.30;99.90;;;;;;4996349;28;20490;-77
2023/12/20 05:10:51;;;;;;;1.45;0.50;;;7.30;99.90;;;;;;4976730;28;20045;-77
2023/12/20 05:13:17;;;;;;;4.38;0.57;;;7.30;99.90;;;;;;4990872;28;20049;-77
2023/12/20 05:15:43;;;;;;;3.17;0.82;;;7.40;99.90;;;;;;4997202;28;20113;-77
2023/12/20 05:18:08;;;;;;;3.92;0.65;;;7.50;99.90;;;;;;4994661;28;20212;-77
2023/12/20 05:20:34;;;;;;;0.98;0.55;;;7.40;99.90;;;;;;4996026;28;20546;-77
2023/12/20 05:23:00;;;;;;;3.67;0.35;;;7.50;99.90;;;;;;4972476;28;20050;-77
2023/12/20 05:25:25;;;;;;;0.65;0.35;;;7.50;99.90;;;;;;4994426;28;20073;-77
2023/12/20 05:27:51;;;;;;;3.30;0.73;;;7.50;99.90;;;;;;4994983;28;20108;-77
2023/12/20 05:30:17;;;;;;;2.00;0.55;;;7.60;99.90;;;;;;4993360;28;20046;-77
2023/12/20 05:32:42;;;;;;;1.55;0.45;;;7.60;99.90;;;;;;4976141;28;20403;-77
2023/12/20 05:35:08;;;;;;;7.10;1.63;;;7.60;99.90;;;;;;4996969;28;20042;-77
2023/12/20 05:37:34;;;;;;;1.95;0.55;;;7.60;99.90;;;;;;4996046;28;20132;-77
2023/12/20 05:39:59;;;;;;;12.73;0.70;;;7.70;99.90;;;;;;4992293;28;20042;-77
2023/12/20 05:42:25;;;;;;;11.82;0.52;;;7.70;99.90;;;;;;4996870;28;20054;-77
2023/12/20 05:44:51;;;;;;;4.22;0.68;;;7.70;99.90;;;;;;4991840;28;20038;-77
2023/12/20 05:47:16;;;;;;;1.13;0.43;;;7.70;99.90;;;;;;4995927;28;20038;-77
2023/12/20 05:49:43;;;;;;;3.80;0.73;;;7.70;99.90;;;;;;4997644;28;20046;-76
2023/12/20 05:52:09;;;;;;;6.53;0.73;;;7.80;99.90;;;;;;4993061;28;20128;-77
2023/12/20 05:54:35;;;;;;;8.07;1.20;;;7.70;99.90;;;;;;4994791;28;20129;-77
2023/12/20 05:57:01;;;;;;;3.53;0.75;;;7.70;99.90;;;;;;4996195;28;20088;-77
2023/12/20 05:59:26;;;;;;;5.82;0.68;;;7.80;99.90;;;;;;4991054;28;20050;-77
2023/12/20 06:01:52;;;;;;;1.83;0.70;;;7.80;99.90;;;;;;4991418;28;20050;-77
2023/12/20 06:04:18;;;;;;;6.85;0.65;;;7.80;99.90;;;;;;4997823;28;20092;-77
2023/12/20 06:06:44;;;;;;;3.45;0.85;;;7.80;99.90;;;;;;4996144;28;20045;-77
2023/12/20 06:09:10;;;;;;;5.32;0.70;;;7.80;99.90;;;;;;4999900;28;20048;-77
2023/12/20 06:11:36;;;;;;;5.32;0.80;;;7.80;99.90;;;;;;4993820;28;20074;-77
2023/12/20 06:14:01;;;;;;;3.40;0.80;;;7.80;99.90;;;;;;4978151;28;20259;-77
2023/12/20 06:16:27;;;;;;;7.30;0.32;;;7.80;99.90;;;;;;4997557;28;20053;-77
2023/12/20 06:18:53;;;;;;;5.10;1.15;;;7.80;99.90;;;;;;4994292;28;20033;-77
2023/12/20 06:21:19;;;;;;;0.73;0.32;;;7.80;99.90;;;;;;4993706;28;20046;-77
2023/12/20 06:23:44;;;;;;;4.63;0.55;;;7.90;99.90;;;;;;4975628;28;20402;-77
2023/12/20 06:26:10;;;;;;;5.43;0.63;;;7.90;99.90;;;;;;4997127;28;20046;-77
2023/12/20 06:28:36;;;;;;;4.40;0.70;;;7.80;99.90;;;;;;4993486;28;20054;-77
2023/12/20 06:31:02;;;;;;;0.38;0.30;;;7.90;99.90;;;;;;4997555;28;20084;-77
2023/12/20 06:33:30;;;;;;;1.95;0.63;;;7.90;99.90;;;;;;4981725;28;20038;-77
2023/12/20 06:35:56;;;;;;;5.55;0.20;;;7.90;99.90;;;;;;4978447;28;20057;-77
2023/12/20 06:38:22;;;;;;;1.48;0.30;;;8.00;99.90;;;;;;4995658;28;20042;-77
2023/12/20 06:40:47;;;;;;;4.00;1.08;;;7.90;99.90;;;;;;4994941;28;20505;-77
2023/12/20 06:43:13;;;;;;;8.77;0.88;;;8.00;99.90;;;;;;4982447;28;20029;-77
2023/12/20 06:45:39;;;;;;;2.00;0.43;;;8.00;99.90;;;;;;5001570;28;20426;-77
2023/12/20 06:48:05;;;;;;;2.15;0.38;;;8.00;99.90;;;;;;4998948;28;20381;-77
2023/12/20 06:50:31;;;;;;;5.10;0.63;;;8.00;99.90;;;;;;4977704;28;20104;-77
2023/12/20 06:52:57;;;;;;;1.77;1.27;;;8.00;99.90;;;;;;5000412;28;20419;-77
2023/12/20 06:55:22;;;;;;;9.90;0.73;;;8.00;99.90;;;;;;4978558;28;20068;-77
2023/12/20 06:57:48;;;;;;;7.03;0.63;;;8.00;99.90;;;;;;5003339;28;20193;-77
2023/12/20 07:00:15;;;;;;;8.32;1.17;;;8.10;99.90;;;;;;5002238;28;20038;-77
2023/12/20 07:02:40;;;;;;;3.13;0.30;;;8.00;99.90;;;;;;4994033;28;20443;-77
2023/12/20 07:05:06;;;;;;;5.30;0.38;;;8.00;99.90;;;;;;4997581;28;20055;-77
2023/12/20 07:07:32;;;;;;;2.97;0.20;;;8.10;99.90;;;;;;4986407;28;20105;-77
2023/12/20 07:09:58;;;;;;;5.32;0.38;;;8.10;99.90;;;;;;4981943;28;20418;-77
2023/12/20 07:12:24;;;;;;;0.75;0.57;;;8.10;99.90;;;;;;4999353;28;20038;-77
2023/12/20 07:14:49;;;;;;;3.53;0.20;;;8.10;99.90;;;;;;4979954;28;20779;-77
2023/12/20 07:17:15;;;;;;;5.60;1.65;;;8.10;99.90;;;;;;4996698;28;20073;-77
2023/12/20 07:19:42;;;;;;;2.78;0.40;;;8.10;99.90;;;;;;5002352;28;20038;-77
2023/12/20 07:22:08;;;;;;;1.30;0.57;;;8.10;99.90;;;;;;4981320;28;20049;-77
2023/12/20 07:24:34;;;;;;;0.52;0.32;;;8.10;99.90;;;;;;4985741;28;20041;-77
2023/12/20 07:27:03;;;;;;;3.92;1.08;;;8.10;99.90;;;;;;5000938;28;20042;-77
2023/12/20 07:29:29;;;;;;;4.93;0.88;;;8.10;99.90;;;;;;4982324;28;20046;-77
2023/12/20 07:31:54;;;;;;;6.75;3.75;;;8.20;99.90;;;;;;4999803;28;20034;-77
2023/12/20 07:34:23;;;;;;;7.32;1.13;;;8.20;99.90;;;;;;4996928;28;20472;-77
2023/12/20 07:36:49;;;;;;;4.63;0.95;;;8.20;99.90;;;;;;4972092;28;20038;-77
2023/12/20 07:39:15;;;;;;;5.68;0.98;;;8.20;99.90;;;;;;4997701;28;20045;-76
2023/12/20 07:41:40;;;;;;;2.95;0.43;;;8.20;99.90;;;;;;4997532;28;20065;-76
2023/12/20 07:44:07;;;;;;;1.15;0.60;;;8.30;99.90;;;;;;4996363;28;20046;-77
2023/12/20 07:46:33;;;;;;;2.47;0.50;;;8.30;99.90;;;;;;4979023;28;20124;-77
2023/12/20 07:48:59;;;;;;;17.02;0.93;;;8.30;99.90;;;;;;4994322;28;20034;-77
2023/12/20 07:51:24;;;;;;;2.28;0.77;;;8.20;99.90;;;;;;4980974;28;20112;-77
2023/12/20 07:53:52;;;;;;;12.23;2.22;;;8.30;99.90;;;;;;4981726;28;20088;-77
2023/12/20 07:56:19;;;;;;;4.00;0.60;;;8.40;99.90;;;;;;4996209;28;20043;-77
2023/12/20 07:58:45;;;;;;;1.65;0.50;;;8.30;99.90;;;;;;5004242;28;20061;-77
2023/12/20 08:01:11;;;;;;;5.20;0.90;;;8.40;99.90;;;;;;5002165;28;20088;-77
2023/12/20 08:03:38;;;;;;;5.47;1.27;;;8.40;99.90;;;;;;4998441;28;20038;-77
2023/12/20 08:06:04;;;;;;;3.10;0.80;;;8.40;99.90;;;;;;4996370;28;20133;-77
2023/12/20 08:08:29;;;;;;;6.82;1.10;;;8.40;99.90;;;;;;4999111;28;20526;-77
2023/12/20 08:10:57;;;;;;;4.82;0.70;;;8.40;99.90;;;;;;5002521;28;20113;-77
2023/12/20 08:13:25;;;;;;;3.58;0.93;;;8.40;99.90;;;;;;4995901;28;20050;-77
2023/12/20 08:15:55;;;;;;;2.22;0.63;;;8.40;99.90;;;;;;4989957;28;20037;-77
2023/12/20 08:18:21;;;;;;;17.27;1.25;;;8.50;99.90;;;;;;4982527;28;20456;-77
2023/12/20 08:20:48;;;;;;;1.17;0.32;;;8.50;99.90;;;;;;4998640;28;20128;-77
2023/12/20 08:23:15;;;;;;;7.60;0.63;;;8.50;99.90;;;;;;4992676;28;20054;-77
2023/12/20 08:25:41;;;;;;;4.47;0.50;;;8.50;99.90;;;;;;4997282;28;20048;-77
2023/12/20 08:28:07;;;;;;;3.40;1.02;;;8.50;99.90;;;;;;4981875;28;20034;-77
2023/12/20 08:30:32;;;;;;;3.83;0.65;;;8.50;99.90;;;;;;4999028;28;20108;-77
2023/12/20 08:33:02;;;;;;;6.95;0.75;;;8.50;99.90;;;;;;4992404;28;20050;-77
2023/12/20 08:35:28;;;;;;;16.00;1.08;;;8.50;99.90;;;;;;4987596;28;20449;-77
2023/12/20 08:37:53;;;;;;;4.75;1.20;;;8.50;99.90;;;;;;4999531;28;20076;-77
2023/12/20 08:40:20;;;;;;;4.32;0.88;;;8.60;99.90;;;;;;4998922;28;20124;-77
2023/12/20 08:42:46;;;;;;;5.78;1.05;;;8.60;99.90;;;;;;4995205;28;20076;-77
2023/12/20 08:45:11;;;;;;;0.35;0.28;;;8.60;99.90;;;;;;4971423;28;20069;-77
2023/12/20 08:47:37;;;;;;;12.95;1.08;;;8.60;99.90;;;;;;4983706;28;20038;-76
2023/12/20 08:50:04;;;;;;;9.63;1.33;;;8.60;99.90;;;;;;4998468;28;20037;-77
2023/12/20 08:52:29;;;;;;;4.95;1.08;;;8.60;99.90;;;;;;4983132;28;20037;-76
2023/12/20 08:54:55;;;;;;;3.92;1.05;;;8.60;99.90;;;;;;4996051;28;20106;-77
2023/12/20 08:57:23;;;;;;;1.48;0.43;;;8.60;99.90;;;;;;4998229;28;20050;-77
2023/12/20 08:59:49;;;;;;;2.17;0.57;;;8.60;99.90;;;;;;4981476;28;20103;-77
2023/12/20 09:02:15;;;;;;;3.10;1.77;;;8.70;99.90;;;;;;4993297;28;20050;-77
2023/12/20 09:04:41;;;;;;;5.03;0.70;;;8.70;99.90;;;;;;4996722;28;20104;-77
2023/12/20 09:07:20;;;;;;;6.88;0.85;;;8.70;99.90;;;;;;4981388;28;20041;-77
2023/12/20 09:09:46;;;;;;;3.17;0.93;;;8.70;99.90;;;;;;4967541;28;20053;-77
2023/12/20 09:12:11;;;;;;;5.45;0.93;;;8.70;99.90;;;;;;4998346;28;20046;-77
2023/12/20 09:14:37;;;;;;;3.47;0.95;;;8.70;99.90;;;;;;5002695;28;20045;-77
2023/12/20 09:17:03;;;;;;;7.07;2.05;;;8.70;99.90;;;;;;5001320;28;20056;-76
2023/12/20 09:19:29;;;;;;;3.40;0.35;;;8.80;99.90;;;;;;4997790;28;20088;-77
2023/12/20 09:21:55;;;;;;;5.78;0.65;;;8.70;99.90;;;;;;4998791;28;20107;-77
2023/12/20 09:24:21;;;;;;;2.30;0.47;;;8.80;99.90;;;;;;4998453;28;20041;-77
2023/12/20 09:26:46;;;;;;;16.58;2.90;;;8.80;99.90;;;;;;4996719;28;20120;-77
2023/12/20 09:29:15;;;;;;;3.35;0.55;;;8.80;99.90;;;;;;4994223;28;20514;-77
2023/12/20 09:31:43;;;;;;;3.53;1.50;;;8.80;99.90;;;;;;4997567;28;20112;-77
2023/12/20 09:34:09;;;;;;;1.95;0.70;;;8.80;99.90;;;;;;4999811;28;20057;-77
2023/12/20 09:36:36;;;;;;;7.38;0.82;;;9.00;99.90;;;;;;4968503;28;20559;-77
2023/12/20 09:39:02;;;;;;;0.77;0.30;;;9.10;99.90;;;;;;5002144;28;20053;-77
2023/12/20 09:41:31;;;;;;;2.35;0.32;;;9.10;99.90;;;;;;4984546;28;20417;-77
2023/12/20 09:44:02;;;;;;;1.17;0.40;;;9.00;99.90;;;;;;4999336;28;20087;-77
2023/12/20 09:46:32;;;;;;;1.67;0.28;;;8.80;99.90;;;;;;4980574;28;20113;-76
2023/12/20 09:49:00;;;;;;;0.00;0.00;;;8.50;99.90;;;;;;4991560;28;20450;-76
2023/12/20 09:51:28;;;;;;;0.10;0.05;;;8.20;99.90;;;;;;5001500;28;20482;-77
2023/12/20 09:53:54;;;;;;;0.75;0.22;;;7.90;99.90;;;;;;4999525;28;20140;-77
2023/12/20 09:56:21;;;;;;;4.80;0.50;;;7.60;99.90;;;;;;5002197;28;20419;-76
2023/12/20 09:58:47;;;;;;;0.00;0.00;;;7.40;99.90;;;;;;4979319;28;20470;-77
2023/12/20 10:01:14;;;;;;;0.05;0.05;;;7.40;99.90;;;;;;4993208;28;20049;-76
2023/12/20 10:03:41;;;;;;;1.08;0.10;;;7.30;99.90;;;;;;4985134;28;20065;-77
2023/12/20 10:06:07;;;;;;;0.30;0.10;;;7.30;99.90;;;;;;4998234;28;20352;-77
2023/12/20 10:08:32;;;;;;;0.00;0.00;;;7.30;99.90;;;;;;4984166;28;20042;-77
2023/12/20 10:11:02;;;;;;;3.20;1.85;;;7.30;99.90;;;;;;4999877;28;20565;-76
2023/12/20 10:13:28;;;;;;;0.05;0.05;;;7.30;99.90;;;;;;5003033;28;20042;-77
2023/12/20 10:15:55;;;;;;;3.35;0.65;;;7.30;99.90;;;;;;5001658;28;20041;-77
2023/12/20 10:18:21;;;;;;;5.07;0.43;;;7.30;99.90;;;;;;4981296;28;20049;-77
2023/12/20 10:20:47;;;;;;;3.85;0.75;;;7.20;99.90;;;;;;4983149;28;20045;-77
2023/12/20 10:23:15;;;;;;;4.18;0.47;;;7.20;99.90;;;;;;4999903;28;20088;-77
2023/12/20 10:25:41;;;;;;;0.00;0.00;;;7.20;99.90;;;;;;5006792;28;20163;-77
2023/12/20 10:28:14;;;;;;;0.30;0.00;;;7.20;99.90;;;;;;4996023;28;20072;-77
2023/12/20 10:30:41;;;;;;;2.13;0.25;;;7.20;99.90;;;;;;5002010;28;20067;-77
2023/12/20 10:33:10;;;;;;;0.32;0.10;;;7.20;99.90;;;;;;4986679;28;20666;-77
2023/12/20 10:35:37;;;;;;;1.30;0.10;;;7.20;99.90;;;;;;4998603;28;20053;-77
2023/12/20 10:38:05;;;;;;;0.40;0.10;;;7.30;99.90;;;;;;4997441;28;20494;-77
2023/12/20 10:40:34;;;;;;;2.65;0.08;;;7.30;99.90;;;;;;4984112;28;20390;-77
2023/12/20 10:43:01;;;;;;;7.30;0.40;;;7.30;99.90;;;;;;5001605;28;20376;-77
2023/12/20 10:45:26;;;;;;;0.38;0.10;;;7.30;99.90;;;;;;4971180;28;20073;-76
2023/12/20 10:47:52;;;;;;;0.85;0.05;;;7.30;99.90;;;;;;4997221;28;20462;-76
2023/12/20 10:50:20;;;;;;;0.00;0.00;;;7.40;99.90;;;;;;5001796;28;20080;-76
2023/12/20 10:52:47;;;;;;;0.20;0.10;;;7.50;99.90;;;;;;5000024;28;20041;-76
2023/12/20 10:55:13;;;;;;;0.25;0.08;;;7.60;99.90;;;;;;4998459;28;20513;-76
2023/12/20 10:57:39;;;;;;;4.00;0.10;;;7.60;99.90;;;;;;4991198;28;20054;-76
2023/12/20 11:00:11;;;;;;;1.85;0.25;;;7.70;99.90;;;;;;5001304;28;20046;-76
2023/12/20 11:02:40;;;;;;;0.30;0.30;;;7.70;99.90;;;;;;5000785;28;20038;-76
2023/12/20 11:05:21;;;;;;;0.10;0.00;;;7.70;99.90;;;;;;4997830;28;20123;-76
2023/12/20 11:08:02;;;;;;;3.85;0.20;;;7.70;99.90;;;;;;4969182;28;20088;-76
2023/12/20 11:10:46;;;;;;;8.57;0.20;;;7.70;99.90;;;;;;5002809;28;20523;-76
2023/12/20 11:13:21;;;;;;;3.90;0.40;;;7.70;99.90;;;;;;4995588;28;20034;-76
2023/12/20 11:15:47;;;;;;;2.35;0.40;;;7.70;99.90;;;;;;4974938;28;20036;-76
2023/12/20 11:18:13;;;;;;;2.17;0.32;;;7.80;99.90;;;;;;5002768;28;20046;-76
2023/12/20 11:20:41;;;;;;;0.70;0.28;;;7.80;99.90;;;;;;4996494;28;20119;-76
2023/12/20 11:23:09;;;;;;;0.77;0.20;;;7.80;99.90;;;;;;4990498;28;20540;-76
2023/12/20 11:25:56;;;;;;;2.10;0.30;;;7.90;99.90;;;;;;4992399;28;20120;-76
2023/12/20 11:28:24;;;;;;;0.00;0.00;;;8.00;99.90;;;;;;5001220;28;20417;-76
2023/12/20 11:30:52;;;;;;;1.08;0.47;;;8.00;99.90;;;;;;4980905;28;20624;-76
2023/12/20 11:33:26;;;;;;;6.40;0.25;;;8.00;99.90;;;;;;5006458;28;20687;-76
2023/12/20 11:35:55;;;;;;;0.00;0.00;;;8.00;99.90;;;;;;4992460;28;20418;-76
2023/12/20 11:38:21;;;;;;;0.00;0.00;;;8.10;99.90;;;;;;4999302;28;20049;-76
2023/12/20 11:40:50;;;;;;;0.68;0.35;;;8.00;99.90;;;;;;4974375;28;20371;-76
2023/12/20 11:43:34;;;;;;;1.08;0.10;;;8.00;99.90;;;;;;4997140;28;20052;-76
2023/12/20 11:46:10;;;;;;;1.10;0.23;;;8.00;99.90;;;;;;4987741;28;20048;-76
2023/12/20 11:48:38;;;;;;;0.10;0.00;;;8.00;99.90;;;;;;5003163;28;20268;-76
2023/12/20 11:51:11;;;;;;;0.20;0.10;;;8.00;99.90;;;;;;4973501;28;20045;-76
2023/12/20 11:53:37;;;;;;;5.57;0.65;;;8.00;99.90;;;;;;4990124;28;20038;-76
2023/12/20 11:56:05;;;;;;;2.53;0.05;;;8.00;99.90;;;;;;4974272;28;20561;-76
2023/12/20 11:58:31;;;;;;;7.47;0.45;;;8.00;99.90;;;;;;4997043;28;20058;-76
2023/12/20 12:00:57;;;;;;;2.75;0.10;;;8.00;99.90;;;;;;4997297;28;20042;-76
2023/12/20 12:03:23;;;;;;;1.63;0.08;;;8.00;99.90;;;;;;4998266;28;20050;-76
2023/12/20 12:05:49;;;;;;;1.27;0.10;;;8.00;99.90;;;;;;4984511;28;20560;-76
2023/12/20 12:08:16;;;;;;;0.10;0.10;;;8.00;99.90;;;;;;5000595;28;20432;-76
2023/12/20 12:10:43;;;;;;;1.02;0.20;;;8.00;99.90;;;;;;5005527;28;20037;-76
2023/12/20 12:13:09;;;;;;;2.58;0.70;;;8.10;99.90;;;;;;5004857;28;20041;-76
2023/12/20 12:15:36;;;;;;;3.53;0.28;;;8.10;99.90;;;;;;4998506;28;20029;-76
2023/12/20 12:18:02;;;;;;;1.30;0.43;;;8.10;99.90;;;;;;4994841;28;20050;-76
2023/12/20 12:20:28;;;;;;;0.50;0.17;;;8.10;99.90;;;;;;4998317;28;20030;-76
2023/12/20 12:22:59;;;;;;;1.45;0.35;;;8.10;99.90;;;;;;4983927;28;20107;-76
2023/12/20 12:25:25;;;;;;;3.63;0.73;;;8.10;99.90;;;;;;5001120;28;20674;-76
2023/12/20 12:27:52;;;;;;;3.70;0.20;;;8.10;99.90;;;;;;4985992;28;20037;-76
2023/12/20 12:30:20;;;;;;;2.35;0.20;;;8.10;99.90;;;;;;4980080;28;20125;-76
2023/12/20 12:32:46;;;;;;;2.90;0.98;;;8.10;99.90;;;;;;4982030;28;20080;-76
2023/12/20 12:35:12;;;;;;;1.20;0.03;;;8.10;99.90;;;;;;4997538;28;20573;-76
2023/12/20 12:37:39;;;;;;;1.50;0.00;;;8.00;99.90;;;;;;4986866;28;20742;-76
2023/12/20 12:40:16;;;;;;;0.25;0.13;;;8.00;99.90;;;;;;4999865;28;20063;-76
2023/12/20 12:42:43;;;;;;;1.40;0.63;;;8.00;99.90;;;;;;4999412;28;20132;-76
2023/12/20 12:45:09;;;;;;;0.80;0.45;;;8.00;99.90;;;;;;4996445;28;20038;-76
2023/12/20 12:47:36;;;;;;;1.40;0.10;;;8.00;99.90;;;;;;4997505;28;20037;-76
2023/12/20 12:50:02;;;;;;;0.22;0.05;;;8.00;99.90;;;;;;4991542;28;20080;-76
2023/12/20 12:52:27;;;;;;;8.05;0.45;;;7.90;99.90;;;;;;4993422;28;20045;-76
2023/12/20 12:54:53;;;;;;;0.40;0.28;;;7.90;99.90;;;;;;4984503;28;20037;-76